createdAt,value
2022-07-29T00:00:14.714Z,0.50
2022-07-29T00:01:46.363Z,0.75
2022-07-29T00:03:18.065Z,0.60
2022-07-29T00:04:49.705Z,0.60
2022-07-29T00:06:22.026Z,0.75
2022-07-29T00:07:53.649Z,0.65
2022-07-29T00:09:25.271Z,1.02
2022-07-29T00:10:56.889Z,0.82
2022-07-29T00:12:28.518Z,0.75
2022-07-29T00:14:01.530Z,1.20
2022-07-29T00:15:33.250Z,0.70
2022-07-29T00:17:04.910Z,0.75
2022-07-29T00:18:36.558Z,0.70
2022-07-29T00:20:08.817Z,0.70
2022-07-29T00:21:40.481Z,0.75
2022-07-29T00:23:13.552Z,0.60
2022-07-29T00:24:45.392Z,0.68
2022-07-29T00:26:17.036Z,0.82
2022-07-29T00:27:48.707Z,0.70
2022-07-29T00:29:35.760Z,0.80
2022-07-29T00:31:07.540Z,0.90
2022-07-29T00:32:39.254Z,0.60
2022-07-29T00:34:30.947Z,0.70
2022-07-29T00:36:02.576Z,0.70
2022-07-29T00:37:34.235Z,0.98
2022-07-29T00:39:05.841Z,0.70
2022-07-29T00:40:37.712Z,0.57
2022-07-29T00:42:17.114Z,0.63
2022-07-29T00:43:48.798Z,0.50
2022-07-29T00:45:21.105Z,0.70
2022-07-29T00:46:52.985Z,0.70
2022-07-29T00:48:24.652Z,0.70
2022-07-29T00:49:56.327Z,0.52
2022-07-29T00:51:28.362Z,0.50
2022-07-29T00:53:00.258Z,0.65
2022-07-29T00:54:33.090Z,0.73
2022-07-29T00:56:04.993Z,0.70
2022-07-29T00:57:37.577Z,0.60
2022-07-29T00:59:09.212Z,0.70
2022-07-29T01:00:41.793Z,0.52
2022-07-29T01:02:13.764Z,0.60
2022-07-29T01:03:45.418Z,0.50
2022-07-29T01:05:22.247Z,0.70
2022-07-29T01:06:55.481Z,0.75
2022-07-29T01:08:27.218Z,0.70
2022-07-29T01:09:59.799Z,0.60
2022-07-29T01:11:31.740Z,0.70
2022-07-29T01:13:03.464Z,0.75
2022-07-29T01:14:41.463Z,0.68
2022-07-29T01:16:31.883Z,0.70
2022-07-29T01:18:22.199Z,0.70
2022-07-29T01:20:16.988Z,0.88
2022-07-29T01:21:58.633Z,0.60
2022-07-29T01:23:59.508Z,0.70
2022-07-29T01:25:56.138Z,0.60
2022-07-29T01:28:06.793Z,0.50
2022-07-29T01:29:56.819Z,0.60
2022-07-29T01:31:59.503Z,0.57
2022-07-29T01:33:51.224Z,0.77
2022-07-29T01:35:29.645Z,0.90
2022-07-29T01:37:20.908Z,1.10
2022-07-29T01:39:02.943Z,0.70
2022-07-29T01:40:46.070Z,0.50
2022-07-29T01:42:32.981Z,0.70
2022-07-29T01:44:21.233Z,0.70
2022-07-29T01:46:01.312Z,0.75
2022-07-29T01:47:41.185Z,0.65
2022-07-29T01:49:17.816Z,0.60
2022-07-29T01:50:54.680Z,0.80
2022-07-29T01:52:32.523Z,0.80
2022-07-29T01:54:36.673Z,0.90
2022-07-29T01:56:11.314Z,0.80
2022-07-29T01:57:50.089Z,0.70
2022-07-29T01:59:22.563Z,0.75
2022-07-29T02:00:56.939Z,0.73
2022-07-29T02:02:31.433Z,0.68
2022-07-29T02:04:04.917Z,0.60
2022-07-29T02:05:40.076Z,0.68
2022-07-29T02:07:15.288Z,0.73
2022-07-29T02:08:48.867Z,1.10
2022-07-29T02:10:25.958Z,0.70
2022-07-29T02:12:00.321Z,0.85
2022-07-29T02:13:35.230Z,0.90
2022-07-29T02:15:08.399Z,0.70
2022-07-29T02:16:44.411Z,0.68
2022-07-29T02:18:19.342Z,0.68
2022-07-29T02:19:52.660Z,0.80
2022-07-29T02:21:27.819Z,0.70
2022-07-29T02:23:01.870Z,0.75
2022-07-29T02:24:34.549Z,0.70
2022-07-29T02:26:08.331Z,1.00
2022-07-29T02:27:42.281Z,0.60
2022-07-29T02:29:15.998Z,0.93
2022-07-29T02:30:48.837Z,0.98
2022-07-29T02:32:23.557Z,0.80
2022-07-29T02:33:57.665Z,0.80
2022-07-29T02:35:34.853Z,0.85
2022-07-29T02:37:08.550Z,0.70
2022-07-29T02:38:52.123Z,0.90
2022-07-29T02:40:23.892Z,0.93
2022-07-29T02:42:02.152Z,1.20
2022-07-29T02:43:35.742Z,0.85
2022-07-29T02:45:07.768Z,0.82
2022-07-29T02:46:46.608Z,0.93
2022-07-29T02:48:23.419Z,0.90
2022-07-29T02:50:09.229Z,0.98
2022-07-29T02:51:53.970Z,0.80
2022-07-29T02:53:27.530Z,0.60
2022-07-29T02:55:22.530Z,0.70
2022-07-29T02:56:56.556Z,0.80
2022-07-29T02:58:38.989Z,0.90
2022-07-29T03:00:12.687Z,0.90
2022-07-29T03:01:46.155Z,1.00
2022-07-29T03:03:19.824Z,0.80
2022-07-29T03:04:53.679Z,1.05
2022-07-29T03:06:38.578Z,0.90
2022-07-29T03:08:12.811Z,0.85
2022-07-29T03:09:46.202Z,0.88
2022-07-29T03:11:18.119Z,0.98
2022-07-29T03:12:49.804Z,0.95
2022-07-29T03:14:22.033Z,1.05
2022-07-29T03:15:54.818Z,0.90
2022-07-29T03:17:26.526Z,0.95
2022-07-29T03:18:58.808Z,0.77
2022-07-29T03:20:30.713Z,0.90
2022-07-29T03:22:02.543Z,1.10
2022-07-29T03:23:36.774Z,1.10
2022-07-29T03:25:10.188Z,1.02
2022-07-29T03:26:41.809Z,0.90
2022-07-29T03:28:13.496Z,1.30
2022-07-29T03:29:49.997Z,1.15
2022-07-29T03:31:22.328Z,1.20
2022-07-29T03:32:54.160Z,1.08
2022-07-29T03:34:28.233Z,1.52
2022-07-29T03:36:00.040Z,1.33
2022-07-29T03:37:31.693Z,1.40
2022-07-29T03:39:04.979Z,1.48
2022-07-29T03:40:55.623Z,1.42
2022-07-29T03:42:34.634Z,1.50
2022-07-29T03:44:08.222Z,1.60
2022-07-29T03:45:43.683Z,1.40
2022-07-29T03:47:18.477Z,1.52
2022-07-29T03:48:59.275Z,1.52
2022-07-29T03:50:33.472Z,1.45
2022-07-29T03:52:06.460Z,1.40
2022-07-29T03:53:38.915Z,1.27
2022-07-29T03:55:10.911Z,1.50
2022-07-29T03:56:48.382Z,1.25
2022-07-29T03:58:20.709Z,1.42
2022-07-29T03:59:53.575Z,1.40
2022-07-29T04:01:26.513Z,1.45
2022-07-29T04:02:58.623Z,1.40
2022-07-29T04:04:34.216Z,1.10
2022-07-29T04:06:07.646Z,1.60
2022-07-29T04:07:39.262Z,1.30
2022-07-29T04:09:11.203Z,1.27
2022-07-29T04:10:42.868Z,1.60
2022-07-29T04:12:14.535Z,1.70
2022-07-29T04:13:46.185Z,1.70
2022-07-29T04:15:17.906Z,1.60
2022-07-29T04:16:49.550Z,1.80
2022-07-29T04:18:21.154Z,2.40
2022-07-29T04:19:52.804Z,2.38
2022-07-29T04:21:24.621Z,1.92
2022-07-29T04:22:56.275Z,2.05
2022-07-29T04:24:28.435Z,1.90
2022-07-29T04:26:02.011Z,2.17
2022-07-29T04:27:33.640Z,1.85
2022-07-29T04:29:05.375Z,2.00
2022-07-29T04:30:38.119Z,2.00
2022-07-29T04:32:09.741Z,2.10
2022-07-29T04:33:41.456Z,2.03
2022-07-29T04:35:13.070Z,2.10
2022-07-29T04:36:44.764Z,1.98
2022-07-29T04:38:17.090Z,1.92
2022-07-29T04:39:48.996Z,2.00
2022-07-29T04:41:20.826Z,1.80
2022-07-29T04:42:53.067Z,1.92
2022-07-29T04:44:28.479Z,1.73
2022-07-29T04:46:01.288Z,1.48
2022-07-29T04:47:32.973Z,1.77
2022-07-29T04:49:04.746Z,1.65
2022-07-29T04:50:39.670Z,1.60
2022-07-29T04:52:11.391Z,2.83
2022-07-29T04:53:43.029Z,3.08
2022-07-29T04:55:14.695Z,3.30
2022-07-29T04:56:47.419Z,3.28
2022-07-29T04:58:19.567Z,3.58
2022-07-29T04:59:51.189Z,3.28
2022-07-29T05:01:22.874Z,3.33
2022-07-29T05:02:54.610Z,3.00
2022-07-29T05:04:26.327Z,3.42
2022-07-29T05:05:58.013Z,3.15
2022-07-29T05:07:29.641Z,2.63
2022-07-29T05:09:01.236Z,3.15
2022-07-29T05:10:33.595Z,2.67
2022-07-29T05:12:05.575Z,2.58
2022-07-29T05:13:45.677Z,2.50
2022-07-29T05:16:52.063Z,2.03
2022-07-29T05:18:25.994Z,2.15
2022-07-29T05:19:57.972Z,2.20
2022-07-29T05:21:29.718Z,2.50
2022-07-29T05:23:02.230Z,2.72
2022-07-29T05:24:33.890Z,2.78
2022-07-29T05:26:05.507Z,3.00
2022-07-29T05:27:37.807Z,3.13
2022-07-29T05:29:43.683Z,2.90
2022-07-29T05:31:01.907Z,2.97
2022-07-29T05:32:33.693Z,2.75
2022-07-29T05:34:05.326Z,3.00
2022-07-29T05:35:38.066Z,2.47
2022-07-29T05:37:09.788Z,3.22
2022-07-29T05:38:41.386Z,3.30
2022-07-29T05:40:13.079Z,3.10
2022-07-29T05:41:47.697Z,3.22
2022-07-29T05:43:23.370Z,3.92
2022-07-29T05:44:55.053Z,4.65
2022-07-29T05:46:26.795Z,5.30
2022-07-29T05:47:58.412Z,4.88
2022-07-29T05:49:30.102Z,5.25
2022-07-29T05:51:01.980Z,5.95
2022-07-29T05:52:33.628Z,6.13
2022-07-29T05:54:05.363Z,6.70
2022-07-29T05:55:37.059Z,5.78
2022-07-29T05:57:20.084Z,7.13
2022-07-29T06:00:23.853Z,6.80
2022-07-29T06:01:55.821Z,6.60
2022-07-29T06:03:27.676Z,7.20
2022-07-29T06:04:59.681Z,6.65
2022-07-29T06:06:31.327Z,6.88
2022-07-29T06:08:03.027Z,6.78
2022-07-29T06:09:36.342Z,6.68
2022-07-29T06:11:09.608Z,6.88
2022-07-29T06:12:41.297Z,6.15
2022-07-29T06:14:13.358Z,6.43
2022-07-29T06:15:45.314Z,7.32
2022-07-29T06:17:17.927Z,8.15
2022-07-29T06:18:49.702Z,8.23
2022-07-29T06:20:27.153Z,8.43
2022-07-29T06:21:59.135Z,7.95
2022-07-29T06:23:30.764Z,8.38
2022-07-29T06:25:03.313Z,8.45
2022-07-29T06:26:39.214Z,8.55
2022-07-29T06:28:11.990Z,8.40
2022-07-29T06:29:43.651Z,7.97
2022-07-29T06:31:15.350Z,7.93
2022-07-29T06:32:47.278Z,7.95
2022-07-29T06:34:19.466Z,7.75
2022-07-29T06:35:53.302Z,7.60
2022-07-29T06:37:25.877Z,7.72
2022-07-29T06:38:59.467Z,7.03
2022-07-29T06:40:51.491Z,7.05
2022-07-29T06:42:23.113Z,6.13
2022-07-29T06:43:56.795Z,6.07
2022-07-29T06:45:28.667Z,5.93
2022-07-29T06:47:01.255Z,6.13
2022-07-29T06:48:34.379Z,6.35
2022-07-29T06:50:07.688Z,6.28
2022-07-29T06:51:39.479Z,5.90
2022-07-29T06:53:11.126Z,6.68
2022-07-29T06:54:48.898Z,7.15
2022-07-29T06:56:20.481Z,6.47
2022-07-29T06:57:52.358Z,6.70
2022-07-29T06:59:32.055Z,6.60
2022-07-29T07:01:07.906Z,6.50
2022-07-29T07:02:39.726Z,6.65
2022-07-29T07:04:12.198Z,5.85
2022-07-29T07:05:45.099Z,6.45
2022-07-29T07:07:16.783Z,6.07
2022-07-29T07:08:49.628Z,6.38
2022-07-29T07:10:21.324Z,6.80
2022-07-29T07:11:52.933Z,6.43
2022-07-29T07:13:24.868Z,6.22
2022-07-29T07:14:56.506Z,6.63
2022-07-29T07:16:28.316Z,6.13
2022-07-29T07:18:00.158Z,6.60
2022-07-29T07:19:31.914Z,6.50
2022-07-29T07:21:05.901Z,6.32
2022-07-29T07:22:39.034Z,6.28
2022-07-29T07:24:10.751Z,5.88
2022-07-29T07:25:43.025Z,6.45
2022-07-29T07:27:14.653Z,5.60
2022-07-29T07:28:46.266Z,6.15
2022-07-29T07:30:17.943Z,6.22
2022-07-29T07:31:49.741Z,6.00
2022-07-29T07:33:21.461Z,5.95
2022-07-29T07:34:53.089Z,6.00
2022-07-29T07:36:24.761Z,5.63
2022-07-29T07:37:57.569Z,6.50
2022-07-29T07:39:29.256Z,6.07
2022-07-29T07:41:01.454Z,5.93
2022-07-29T07:42:33.128Z,5.78
2022-07-29T07:44:04.938Z,6.03
2022-07-29T07:45:38.346Z,6.10
2022-07-29T07:47:12.268Z,5.75
2022-07-29T07:48:44.468Z,5.63
2022-07-29T07:50:19.021Z,6.32
2022-07-29T07:51:51.258Z,5.97
2022-07-29T07:53:23.095Z,5.60
2022-07-29T07:54:54.810Z,5.90
2022-07-29T07:56:28.009Z,6.07
2022-07-29T07:58:01.272Z,6.47
2022-07-29T07:59:32.962Z,6.32
2022-07-29T08:01:04.642Z,5.82
2022-07-29T08:02:36.464Z,5.65
2022-07-29T08:04:08.677Z,6.53
2022-07-29T08:05:42.120Z,5.47
2022-07-29T08:07:15.860Z,6.43
2022-07-29T08:08:47.544Z,5.75
2022-07-29T08:10:39.418Z,6.05
2022-07-29T08:12:11.086Z,5.30
2022-07-29T08:13:43.813Z,5.82
2022-07-29T08:15:15.409Z,5.75
2022-07-29T08:16:47.293Z,5.63
2022-07-29T08:18:18.928Z,6.53
2022-07-29T08:19:50.855Z,6.05
2022-07-29T08:21:22.486Z,5.88
2022-07-29T08:22:54.597Z,6.00
2022-07-29T08:24:44.294Z,5.88
2022-07-29T08:26:16.485Z,5.80
2022-07-29T08:27:48.626Z,5.65
2022-07-29T08:29:20.314Z,6.20
2022-07-29T08:30:51.950Z,5.70
2022-07-29T08:32:50.860Z,6.45
2022-07-29T08:34:15.500Z,6.07
2022-07-29T08:35:47.159Z,6.00
2022-07-29T08:37:18.820Z,6.10
2022-07-29T08:38:53.002Z,6.43
2022-07-29T08:40:32.227Z,5.93
2022-07-29T08:42:04.577Z,5.65
2022-07-29T08:43:38.535Z,6.05
2022-07-29T08:45:10.702Z,5.90
2022-07-29T08:46:42.508Z,5.88
2022-07-29T08:48:15.905Z,5.50
2022-07-29T08:49:49.420Z,5.80
2022-07-29T08:51:22.341Z,6.35
2022-07-29T08:52:59.374Z,6.00
2022-07-29T08:54:31.773Z,5.80
2022-07-29T08:56:03.539Z,5.55
2022-07-29T08:57:37.270Z,6.75
2022-07-29T08:59:10.441Z,5.15
2022-07-29T09:00:51.123Z,5.88
2022-07-29T09:02:24.002Z,5.68
2022-07-29T09:03:57.354Z,5.40
2022-07-29T09:05:30.530Z,5.50
2022-07-29T09:07:06.640Z,5.80
2022-07-29T09:08:38.385Z,6.28
2022-07-29T09:10:10.710Z,5.65
2022-07-29T09:11:43.484Z,5.95
2022-07-29T09:13:15.117Z,5.63
2022-07-29T09:14:46.761Z,5.88
2022-07-29T09:16:31.840Z,5.78
2022-07-29T09:18:26.115Z,5.97
2022-07-29T09:20:19.138Z,6.22
2022-07-29T09:21:59.951Z,5.90
2022-07-29T09:23:31.604Z,6.03
2022-07-29T09:25:03.594Z,5.88
2022-07-29T09:26:46.981Z,5.82
2022-07-29T09:28:19.091Z,5.20
2022-07-29T09:30:06.055Z,5.18
2022-07-29T09:31:40.598Z,4.78
2022-07-29T09:33:12.302Z,5.45
2022-07-29T09:34:43.991Z,5.20
2022-07-29T09:36:15.621Z,6.10
2022-07-29T09:37:48.241Z,5.63
2022-07-29T09:39:37.363Z,5.60
2022-07-29T09:41:11.089Z,5.45
2022-07-29T09:42:42.854Z,5.03
2022-07-29T09:44:15.755Z,5.35
2022-07-29T09:45:48.706Z,5.43
2022-07-29T09:47:22.685Z,5.72
2022-07-29T09:49:09.052Z,5.18
2022-07-29T09:50:42.086Z,5.07
2022-07-29T09:52:13.709Z,4.80
2022-07-29T09:53:45.324Z,5.25
2022-07-29T09:55:17.895Z,4.85
2022-07-29T09:56:50.517Z,5.25
2022-07-29T09:58:23.584Z,5.00
2022-07-29T10:00:08.054Z,5.22
2022-07-29T10:01:45.347Z,4.70
2022-07-29T10:03:17.709Z,4.82
2022-07-29T10:04:49.986Z,5.32
2022-07-29T10:06:21.693Z,4.97
2022-07-29T10:07:58.239Z,4.90
2022-07-29T10:09:29.944Z,5.20
2022-07-29T10:11:18.759Z,5.00
2022-07-29T10:12:57.562Z,4.97
2022-07-29T10:14:33.703Z,5.68
2022-07-29T10:16:05.541Z,6.30
2022-07-29T10:17:37.298Z,5.25
2022-07-29T10:19:14.768Z,5.40
2022-07-29T10:20:46.457Z,5.15
2022-07-29T10:22:36.863Z,5.50
2022-07-29T10:24:14.840Z,5.63
2022-07-29T10:25:47.058Z,5.90
2022-07-29T10:27:18.781Z,5.70
2022-07-29T10:28:50.421Z,5.72
2022-07-29T10:30:24.374Z,5.40
2022-07-29T10:32:05.592Z,5.53
2022-07-29T10:34:05.952Z,5.72
2022-07-29T10:36:18.637Z,5.35
2022-07-29T10:38:24.761Z,4.68
2022-07-29T10:40:34.752Z,4.50
2022-07-29T10:42:20.302Z,4.60
2022-07-29T10:44:24.565Z,5.80
2022-07-29T10:46:00.194Z,6.45
2022-07-29T10:47:32.510Z,5.45
2022-07-29T10:49:26.029Z,4.10
2022-07-29T10:51:07.014Z,3.60
2022-07-29T10:52:50.643Z,3.80
2022-07-29T10:54:42.507Z,4.22
2022-07-29T10:56:30.557Z,4.78
2022-07-29T10:58:23.405Z,4.22
2022-07-29T11:00:09.858Z,4.38
2022-07-29T11:01:41.583Z,4.28
2022-07-29T11:03:49.274Z,4.40
2022-07-29T11:05:22.107Z,4.40
2022-07-29T11:06:59.523Z,3.88
2022-07-29T11:08:35.595Z,4.90
2022-07-29T11:10:16.435Z,4.68
2022-07-29T11:11:51.761Z,4.40
2022-07-29T11:13:49.350Z,4.38
2022-07-29T11:15:24.973Z,4.35
2022-07-29T11:17:06.537Z,4.28
2022-07-29T11:19:13.788Z,4.38
2022-07-29T11:20:48.257Z,3.88
2022-07-29T11:22:42.970Z,4.38
2022-07-29T11:24:18.616Z,4.95
2022-07-29T11:28:23.215Z,4.18
2022-07-29T11:30:03.285Z,4.70
2022-07-29T11:31:35.659Z,4.35
2022-07-29T11:33:07.292Z,4.88
2022-07-29T11:34:41.573Z,4.93
2022-07-29T11:38:23.430Z,5.28
2022-07-29T11:40:01.497Z,4.65
2022-07-29T11:41:38.104Z,4.38
2022-07-29T11:43:52.111Z,4.28
2022-07-29T11:45:42.562Z,4.15
2022-07-29T11:47:21.455Z,4.32
2022-07-29T11:48:53.720Z,3.67
2022-07-29T11:50:37.416Z,3.42
2022-07-29T11:53:52.687Z,2.75
2022-07-29T11:55:32.568Z,2.42
2022-07-29T11:57:08.128Z,2.05
2022-07-29T11:58:40.580Z,2.20
2022-07-29T12:00:14.674Z,2.05
2022-07-29T12:02:18.407Z,2.05
2022-07-29T12:04:03.857Z,2.15
2022-07-29T12:05:48.456Z,1.90
2022-07-29T12:07:01.662Z,4.63
2022-07-29T12:07:32.722Z,1.73
2022-07-29T12:09:11.219Z,1.70
2022-07-29T12:10:48.153Z,1.40
2022-07-29T12:12:21.743Z,1.70
2022-07-29T12:13:56.158Z,1.42
2022-07-29T12:15:45.691Z,1.60
2022-07-29T12:17:32.593Z,1.50
2022-07-29T12:19:05.470Z,1.30
2022-07-29T12:20:37.146Z,1.50
2022-07-29T12:22:08.774Z,1.30
2022-07-29T12:23:54.535Z,1.23
2022-07-29T12:25:35.007Z,1.30
2022-07-29T12:27:06.716Z,1.23
2022-07-29T12:28:39.842Z,1.20
2022-07-29T12:30:17.382Z,1.30
2022-07-29T12:31:55.075Z,1.17
2022-07-29T12:33:30.491Z,0.93
2022-07-29T12:35:08.666Z,1.38
2022-07-29T12:36:42.393Z,1.23
2022-07-29T12:38:14.858Z,1.17
2022-07-29T12:39:46.647Z,1.17
2022-07-29T12:41:18.314Z,1.20
2022-07-29T12:43:13.218Z,1.40
2022-07-29T12:44:49.787Z,1.20
2022-07-29T12:46:21.513Z,1.25
2022-07-29T12:47:53.779Z,1.45
2022-07-29T12:49:25.478Z,1.20
2022-07-29T12:51:02.630Z,1.20
2022-07-29T12:52:35.789Z,1.20
2022-07-29T12:54:11.318Z,1.42
2022-07-29T12:55:46.065Z,1.50
2022-07-29T12:57:20.255Z,1.30
2022-07-29T12:58:52.697Z,1.60
2022-07-29T13:00:25.139Z,1.30
2022-07-29T13:01:57.433Z,2.55
2022-07-29T13:03:30.175Z,2.10
2022-07-29T13:05:13.666Z,1.60
2022-07-29T13:06:50.864Z,1.52
2022-07-29T13:08:23.190Z,1.60
2022-07-29T13:09:55.427Z,1.33
2022-07-29T13:11:44.064Z,1.33
2022-07-29T13:13:18.260Z,1.40
2022-07-29T13:14:51.317Z,1.30
2022-07-29T13:16:23.017Z,1.67
2022-07-29T13:17:56.961Z,2.35
2022-07-29T13:19:41.534Z,2.97
2022-07-29T13:21:15.131Z,2.90
2022-07-29T13:22:48.843Z,2.08
2022-07-29T13:24:20.476Z,1.70
2022-07-29T13:25:52.261Z,1.50
2022-07-29T13:27:27.819Z,1.67
2022-07-29T13:28:59.666Z,1.50
2022-07-29T13:30:31.337Z,1.75
2022-07-29T13:32:03.207Z,1.60
2022-07-29T13:33:34.831Z,1.50
2022-07-29T13:35:08.640Z,1.42
2022-07-29T13:36:41.751Z,2.17
2022-07-29T13:38:13.555Z,1.90
2022-07-29T13:39:52.774Z,1.50
2022-07-29T13:41:25.074Z,1.80
2022-07-29T13:42:57.746Z,1.50
2022-07-29T13:44:29.352Z,1.40
2022-07-29T13:46:00.999Z,1.85
2022-07-29T13:47:33.383Z,1.67
2022-07-29T13:49:05.215Z,1.65
2022-07-29T13:50:37.053Z,1.65
2022-07-29T13:52:08.709Z,1.70
2022-07-29T13:53:40.354Z,1.67
2022-07-29T13:55:11.973Z,1.90
2022-07-29T13:56:43.566Z,1.52
2022-07-29T13:58:17.915Z,1.60
2022-07-29T13:59:53.923Z,1.77
2022-07-29T14:01:27.151Z,1.65
2022-07-29T14:02:58.905Z,1.67
2022-07-29T14:04:30.564Z,1.88
2022-07-29T14:06:02.249Z,1.75
2022-07-29T14:07:34.218Z,1.70
2022-07-29T14:09:07.222Z,1.60
2022-07-29T14:10:38.917Z,1.77
2022-07-29T14:12:10.834Z,1.40
2022-07-29T14:13:42.443Z,1.50
2022-07-29T14:15:14.095Z,1.50
2022-07-29T14:16:47.756Z,1.77
2022-07-29T14:18:22.177Z,1.30
2022-07-29T14:19:53.777Z,1.58
2022-07-29T14:21:25.413Z,1.60
2022-07-29T14:22:57.517Z,1.25
2022-07-29T14:24:29.349Z,1.27
2022-07-29T14:26:01.102Z,1.50
2022-07-29T14:27:37.428Z,1.38
2022-07-29T14:29:10.084Z,1.42
2022-07-29T14:30:41.785Z,1.70
2022-07-29T14:32:15.770Z,1.58
2022-07-29T14:33:49.328Z,2.22
2022-07-29T14:35:21.154Z,2.08
2022-07-29T14:36:54.694Z,1.85
2022-07-29T14:38:26.876Z,2.00
2022-07-29T14:40:02.682Z,1.90
2022-07-29T14:41:34.357Z,1.63
2022-07-29T14:43:06.061Z,1.75
2022-07-29T14:44:37.699Z,2.00
2022-07-29T14:46:09.461Z,1.80
2022-07-29T14:47:41.260Z,1.40
2022-07-29T14:49:12.930Z,1.42
2022-07-29T14:50:44.604Z,1.88
2022-07-29T14:52:16.437Z,1.45
2022-07-29T14:53:48.139Z,1.42
2022-07-29T14:55:20.349Z,1.60
2022-07-29T14:56:56.115Z,1.60
2022-07-29T14:58:27.721Z,1.50
2022-07-29T14:59:59.360Z,1.63
2022-07-29T15:01:31.128Z,1.60
2022-07-29T15:03:03.442Z,1.42
2022-07-29T15:04:35.510Z,1.27
2022-07-29T15:06:07.827Z,1.30
2022-07-29T15:07:39.446Z,1.40
2022-07-29T15:09:11.232Z,1.60
2022-07-29T15:10:43.097Z,1.55
2022-07-29T15:12:17.251Z,1.52
2022-07-29T15:13:49.143Z,1.45
2022-07-29T15:15:20.772Z,1.30
2022-07-29T15:16:52.932Z,1.55
2022-07-29T15:18:25.555Z,1.40
2022-07-29T15:19:57.584Z,1.50
2022-07-29T15:21:29.280Z,1.48
2022-07-29T15:23:00.968Z,1.83
2022-07-29T15:24:32.622Z,1.80
2022-07-29T15:26:05.183Z,2.00
2022-07-29T15:27:36.826Z,1.90
2022-07-29T15:29:08.464Z,1.85
2022-07-29T15:30:42.836Z,2.60
2022-07-29T15:32:15.075Z,1.60
2022-07-29T15:33:46.761Z,1.80
2022-07-29T15:35:18.394Z,3.40
2022-07-29T15:36:53.139Z,3.83
2022-07-29T15:38:28.791Z,3.47
2022-07-29T15:40:00.696Z,5.20
2022-07-29T15:41:32.553Z,4.65
2022-07-29T15:43:07.009Z,4.70
2022-07-29T15:44:38.643Z,5.10
2022-07-29T15:46:32.611Z,5.07
2022-07-29T15:48:06.193Z,5.32
2022-07-29T15:49:47.316Z,5.60
2022-07-29T15:51:20.500Z,6.25
2022-07-29T15:52:52.157Z,5.82
2022-07-29T15:54:23.802Z,6.32
2022-07-29T15:55:55.608Z,6.05
2022-07-29T15:57:27.240Z,5.68
2022-07-29T15:58:59.145Z,5.80
2022-07-29T16:00:30.800Z,5.35
2022-07-29T16:02:02.680Z,5.70
2022-07-29T16:03:34.390Z,5.57
2022-07-29T16:05:09.278Z,5.63
2022-07-29T16:06:41.464Z,5.50
2022-07-29T16:08:13.095Z,5.70
2022-07-29T16:09:47.150Z,5.22
2022-07-29T16:11:22.682Z,12.40
2022-07-29T16:12:54.330Z,14.57
2022-07-29T16:14:28.232Z,5.38
2022-07-29T16:16:02.227Z,5.00
2022-07-29T16:17:34.584Z,5.55
2022-07-29T16:19:06.404Z,5.63
2022-07-29T16:20:38.037Z,6.25
2022-07-29T16:22:09.904Z,5.43
2022-07-29T16:23:41.571Z,5.38
2022-07-29T16:25:13.298Z,5.22
2022-07-29T16:26:44.974Z,5.00
2022-07-29T16:28:17.231Z,4.50
2022-07-29T16:29:50.369Z,4.78
2022-07-29T16:31:23.309Z,4.65
2022-07-29T16:32:54.988Z,4.88
2022-07-29T16:34:26.653Z,4.53
2022-07-29T16:35:58.442Z,5.13
2022-07-29T16:37:37.148Z,4.75
2022-07-29T16:39:10.473Z,5.18
2022-07-29T16:40:42.481Z,4.80
2022-07-29T16:42:30.918Z,4.95
2022-07-29T16:44:05.709Z,4.88
2022-07-29T16:45:46.169Z,5.07
2022-07-29T16:48:50.200Z,4.47
2022-07-29T16:50:21.892Z,4.65
2022-07-29T16:51:54.258Z,4.47
2022-07-29T16:53:29.890Z,4.30
2022-07-29T16:55:02.021Z,4.35
2022-07-29T16:56:33.739Z,4.00
2022-07-29T16:58:05.356Z,4.22
2022-07-29T16:59:43.546Z,4.20
2022-07-29T17:01:16.080Z,4.30
2022-07-29T17:02:48.375Z,3.85
2022-07-29T17:04:20.055Z,4.55
2022-07-29T17:05:54.503Z,4.20
2022-07-29T17:07:26.237Z,3.42
2022-07-29T17:08:57.878Z,4.18
2022-07-29T17:10:29.983Z,3.80
2022-07-29T17:12:01.592Z,3.85
2022-07-29T17:13:33.240Z,3.60
2022-07-29T17:15:07.523Z,3.30
2022-07-29T17:16:39.186Z,3.30
2022-07-29T17:18:12.364Z,2.60
2022-07-29T17:19:44.661Z,2.50
2022-07-29T17:21:16.850Z,2.00
2022-07-29T17:22:48.517Z,2.00
2022-07-29T17:24:20.208Z,2.10
2022-07-29T17:25:51.824Z,1.83
2022-07-29T17:27:23.414Z,2.08
2022-07-29T17:28:55.655Z,1.83
2022-07-29T17:30:27.457Z,2.05
2022-07-29T17:32:00.031Z,1.83
2022-07-29T17:33:31.662Z,1.95
2022-07-29T17:35:03.673Z,1.88
2022-07-29T17:36:36.004Z,1.95
2022-07-29T17:38:07.707Z,1.95
2022-07-29T17:39:41.353Z,1.92
2022-07-29T17:41:13.166Z,2.33
2022-07-29T17:42:44.778Z,2.35
2022-07-29T17:44:16.418Z,1.80
2022-07-29T17:45:49.627Z,1.85
2022-07-29T17:47:22.349Z,1.95
2022-07-29T17:48:55.760Z,1.90
2022-07-29T17:50:27.437Z,2.20
2022-07-29T17:52:01.093Z,2.33
2022-07-29T17:53:32.882Z,2.05
2022-07-29T17:55:05.424Z,2.20
2022-07-29T17:56:37.054Z,1.73
2022-07-29T17:58:09.150Z,1.88
2022-07-29T17:59:40.809Z,2.00
2022-07-29T18:01:14.532Z,1.77
2022-07-29T18:02:46.247Z,2.25
2022-07-29T18:04:20.932Z,1.95
2022-07-29T18:05:53.510Z,1.70
2022-07-29T18:07:25.155Z,1.58
2022-07-29T18:08:56.791Z,1.55
2022-07-29T18:10:28.483Z,2.00
2022-07-29T18:12:00.115Z,1.70
2022-07-29T18:13:31.942Z,1.73
2022-07-29T18:15:04.366Z,2.00
2022-07-29T18:16:36.214Z,1.92
2022-07-29T18:18:08.393Z,1.80
2022-07-29T18:19:40.046Z,1.90
2022-07-29T18:21:11.811Z,1.83
2022-07-29T18:22:43.724Z,2.00
2022-07-29T18:24:15.352Z,1.88
2022-07-29T18:25:47.202Z,1.83
2022-07-29T18:27:18.855Z,1.77
2022-07-29T18:28:50.477Z,1.80
2022-07-29T18:30:22.112Z,2.17
2022-07-29T18:31:53.719Z,2.05
2022-07-29T18:33:25.338Z,1.83
2022-07-29T18:34:57.021Z,2.00
2022-07-29T18:36:28.647Z,2.15
2022-07-29T18:38:02.835Z,1.95
2022-07-29T18:39:35.031Z,2.10
2022-07-29T18:41:06.799Z,1.83
2022-07-29T18:42:41.273Z,1.90
2022-07-29T18:44:16.907Z,1.70
2022-07-29T18:45:49.660Z,1.95
2022-07-29T18:47:22.037Z,2.05
2022-07-29T18:48:53.714Z,1.80
2022-07-29T18:50:29.588Z,1.88
2022-07-29T18:52:01.542Z,1.67
2022-07-29T18:53:33.160Z,1.80
2022-07-29T18:55:08.921Z,1.80
2022-07-29T18:56:40.520Z,1.60
2022-07-29T18:58:12.220Z,2.00
2022-07-29T18:59:43.825Z,1.65
2022-07-29T19:01:16.833Z,1.70
2022-07-29T19:02:48.733Z,1.60
2022-07-29T19:04:20.512Z,1.98
2022-07-29T19:05:52.191Z,1.90
2022-07-29T19:07:25.527Z,1.90
2022-07-29T19:08:57.213Z,1.80
2022-07-29T19:10:29.132Z,2.03
2022-07-29T19:12:03.671Z,1.98
2022-07-29T19:13:37.100Z,2.15
2022-07-29T19:15:10.434Z,1.85
2022-07-29T19:16:42.044Z,1.92
2022-07-29T19:18:13.774Z,1.90
2022-07-29T19:19:45.474Z,1.95
2022-07-29T19:21:17.394Z,1.90
2022-07-29T19:22:49.094Z,1.70
2022-07-29T19:24:20.728Z,1.85
2022-07-29T19:25:53.624Z,1.95
2022-07-29T19:27:26.030Z,1.60
2022-07-29T19:28:57.637Z,1.65
2022-07-29T19:30:29.441Z,1.65
2022-07-29T19:32:01.451Z,1.77
2022-07-29T19:33:33.228Z,2.08
2022-07-29T19:35:24.188Z,1.77
2022-07-29T19:36:56.058Z,1.70
2022-07-29T19:38:27.857Z,1.80
2022-07-29T19:39:59.506Z,1.67
2022-07-29T19:41:31.202Z,1.52
2022-07-29T19:43:02.946Z,1.65
2022-07-29T19:44:54.574Z,1.83
2022-07-29T19:46:28.903Z,1.80
2022-07-29T19:48:01.919Z,1.67
2022-07-29T19:49:37.109Z,1.80
2022-07-29T19:51:08.717Z,1.88
2022-07-29T19:52:40.409Z,1.83
2022-07-29T19:54:12.081Z,1.50
2022-07-29T19:55:43.684Z,1.70
2022-07-29T19:57:15.296Z,1.80
2022-07-29T19:58:46.973Z,1.80
2022-07-29T20:00:20.943Z,1.80
2022-07-29T20:01:52.838Z,1.83
2022-07-29T20:03:24.531Z,1.80
2022-07-29T20:04:56.140Z,2.05
2022-07-29T20:06:27.773Z,1.67
2022-07-29T20:07:59.436Z,1.88
2022-07-29T20:09:31.557Z,1.77
2022-07-29T20:11:03.416Z,1.80
2022-07-29T20:12:35.860Z,1.80
2022-07-29T20:14:07.468Z,1.83
2022-07-29T20:15:39.139Z,1.52
2022-07-29T20:17:10.879Z,1.52
2022-07-29T20:18:42.506Z,2.05
2022-07-29T20:20:14.164Z,1.90
2022-07-29T20:21:45.830Z,1.73
2022-07-29T20:23:19.320Z,1.70
2022-07-29T20:24:50.993Z,1.85
2022-07-29T20:26:22.645Z,2.00
2022-07-29T20:27:54.408Z,1.73
2022-07-29T20:29:26.357Z,1.77
2022-07-29T20:30:58.095Z,1.75
2022-07-29T20:32:29.774Z,2.10
2022-07-29T20:34:02.008Z,1.90
2022-07-29T20:35:34.011Z,1.60
2022-07-29T20:37:05.633Z,1.55
2022-07-29T20:38:37.288Z,1.63
2022-07-29T20:40:12.492Z,1.77
2022-07-29T20:41:44.492Z,1.70
2022-07-29T20:43:16.251Z,2.88
2022-07-29T20:44:50.604Z,2.10
2022-07-29T20:46:22.318Z,1.73
2022-07-29T20:47:54.004Z,1.75
2022-07-29T20:49:25.694Z,1.85
2022-07-29T20:50:57.391Z,2.03
2022-07-29T20:52:30.140Z,1.95
2022-07-29T20:54:02.689Z,1.95
2022-07-29T20:55:34.300Z,2.10
2022-07-29T20:57:05.939Z,1.90
2022-07-29T20:58:38.172Z,2.20
2022-07-29T21:00:10.417Z,1.90
2022-07-29T21:01:42.101Z,1.90
2022-07-29T21:03:13.780Z,1.70
2022-07-29T21:04:45.399Z,1.98
2022-07-29T21:06:17.032Z,1.75
2022-07-29T21:07:48.657Z,2.00
2022-07-29T21:09:20.447Z,1.70